createdAt,value
2023-10-15T00:03:37.969Z,8.97
2023-10-15T00:09:58.123Z,8.90
2023-10-15T00:16:27.750Z,8.84
2023-10-15T00:22:23.122Z,8.77
2023-10-15T00:27:28.671Z,8.71
2023-10-15T00:32:58.645Z,8.65
2023-10-15T00:46:39.311Z,8.59
2023-10-15T00:52:12.163Z,8.55
2023-10-15T00:57:28.224Z,8.53
2023-10-15T01:03:02.677Z,8.53
2023-10-15T01:08:53.464Z,8.56
2023-10-15T01:13:57.540Z,8.52
2023-10-15T01:19:13.391Z,8.51
2023-10-15T01:25:10.831Z,8.50
2023-10-15T01:30:19.043Z,8.44
2023-10-15T01:42:43.914Z,8.25
2023-10-15T01:56:00.212Z,8.21
2023-10-15T02:01:18.462Z,8.24
2023-10-15T02:07:40.821Z,8.25
2023-10-15T02:35:56.351Z,8.13
2023-10-15T02:42:35.672Z,8.08
2023-10-15T02:48:34.390Z,8.05
2023-10-15T02:53:41.034Z,8.00
2023-10-15T03:00:07.196Z,7.98
2023-10-15T03:05:16.377Z,7.97
2023-10-15T03:25:37.470Z,7.92
2023-10-15T03:31:18.391Z,7.91
2023-10-15T03:37:16.319Z,7.88
2023-10-15T03:43:17.066Z,7.88
2023-10-15T03:49:37.547Z,8.71
2023-10-15T04:01:50.544Z,10.32
2023-10-15T04:07:20.649Z,10.90
2023-10-15T04:12:28.729Z,10.88
2023-10-15T04:17:33.015Z,11.26
2023-10-15T04:22:46.559Z,11.82
2023-10-15T04:35:13.318Z,11.81
2023-10-15T04:41:42.593Z,11.02
2023-10-15T04:48:14.145Z,11.65
2023-10-15T04:53:25.859Z,11.91
2023-10-15T04:58:30.237Z,10.48
2023-10-15T05:20:10.532Z,11.29
2023-10-15T05:26:56.644Z,11.75
2023-10-15T05:32:56.510Z,11.80
2023-10-15T05:38:01.399Z,10.61
2023-10-15T05:43:06.417Z,11.56
2023-10-15T05:48:10.335Z,11.48
2023-10-15T05:53:15.892Z,11.03
2023-10-15T05:58:20.935Z,11.88
2023-10-15T06:03:25.389Z,10.93
2023-10-15T06:08:30.327Z,11.13
2023-10-15T06:13:34.614Z,11.92
2023-10-15T06:18:38.872Z,11.00
2023-10-15T06:23:44.479Z,11.40
2023-10-15T06:28:48.349Z,12.19
2023-10-15T06:33:52.640Z,11.22
2023-10-15T06:38:58.498Z,12.02
2023-10-15T06:44:02.664Z,11.75
2023-10-15T06:49:09.453Z,11.35
2023-10-15T07:10:34.827Z,11.81
2023-10-15T07:15:39.744Z,11.96
2023-10-15T07:27:59.739Z,10.83
2023-10-15T07:33:32.473Z,11.25
2023-10-15T07:38:38.109Z,11.19
2023-10-15T07:52:26.611Z,11.26
2023-10-15T07:59:15.591Z,11.28
2023-10-15T08:04:19.973Z,11.43
2023-10-15T08:09:24.280Z,11.86
2023-10-15T08:14:53.293Z,11.91
2023-10-15T08:27:57.321Z,11.34
2023-10-15T08:34:39.934Z,11.47
2023-10-15T08:39:43.858Z,12.12
2023-10-15T08:44:51.623Z,12.53
2023-10-15T08:49:57.136Z,12.59
2023-10-15T08:55:02.072Z,12.70
2023-10-15T09:01:44.403Z,12.68
2023-10-15T09:06:50.257Z,12.78
2023-10-15T09:11:56.287Z,12.69
2023-10-15T09:17:00.489Z,12.43
2023-10-15T09:22:33.796Z,12.11
2023-10-15T09:34:40.354Z,12.61
2023-10-15T09:39:45.365Z,12.88
2023-10-15T09:45:32.585Z,12.81
2023-10-15T09:50:40.930Z,12.57
2023-10-15T09:55:47.914Z,12.42
2023-10-15T10:01:10.947Z,12.43
2023-10-15T10:14:12.924Z,12.05
2023-10-15T10:20:33.501Z,12.16
2023-10-15T10:25:46.785Z,12.26
2023-10-15T10:31:01.457Z,12.45
2023-10-15T10:36:19.772Z,12.50
2023-10-15T10:41:47.805Z,12.56
2023-10-15T10:46:58.090Z,12.27
2023-10-15T10:52:20.869Z,12.03
2023-10-15T10:57:33.331Z,12.09
2023-10-15T11:02:37.494Z,12.39
2023-10-15T11:07:42.689Z,12.77
2023-10-15T11:12:50.881Z,13.12
2023-10-15T11:18:28.317Z,13.17
2023-10-15T11:23:35.220Z,13.54
2023-10-15T11:28:39.341Z,13.68
2023-10-15T11:33:43.658Z,13.65
2023-10-15T11:38:48.907Z,13.71
2023-10-15T11:43:52.834Z,13.85
2023-10-15T11:56:05.240Z,14.40
2023-10-15T12:01:12.248Z,13.94
2023-10-15T12:06:18.192Z,13.78
2023-10-15T12:21:42.970Z,13.38
2023-10-15T12:26:49.550Z,13.24
2023-10-15T12:32:00.046Z,13.07
2023-10-15T12:51:29.467Z,12.69
2023-10-15T12:56:33.635Z,12.83
2023-10-15T13:02:55.723Z,13.01
2023-10-15T13:08:50.924Z,13.07
2023-10-15T13:14:56.704Z,12.82
2023-10-15T13:20:51.962Z,12.95
2023-10-15T13:27:37.542Z,13.49
2023-10-15T13:34:03.745Z,14.32
2023-10-15T13:39:16.990Z,15.33
2023-10-15T13:44:56.861Z,15.64
2023-10-15T13:50:52.784Z,15.00
2023-10-15T13:55:56.953Z,13.88
2023-10-15T14:01:00.977Z,13.19
2023-10-15T14:06:46.647Z,12.92
2023-10-15T14:11:51.936Z,13.11
2023-10-15T14:16:56.719Z,13.07
2023-10-15T14:36:08.849Z,14.37
2023-10-15T14:41:42.561Z,14.93
2023-10-15T14:46:46.612Z,15.06
2023-10-15T14:51:50.563Z,14.31
2023-10-15T14:56:55.236Z,13.35
2023-10-15T15:09:38.008Z,11.92
2023-10-15T15:15:55.088Z,11.41
2023-10-15T15:21:50.293Z,11.07
2023-10-15T15:34:25.485Z,10.38
2023-10-15T15:40:43.005Z,10.13
2023-10-15T15:47:02.623Z,9.88
2023-10-15T15:53:25.136Z,9.68
2023-10-15T16:07:39.208Z,9.25
2023-10-15T16:12:46.363Z,9.12
2023-10-15T16:17:52.902Z,9.02
2023-10-15T16:22:59.111Z,8.93
2023-10-15T16:35:10.031Z,8.85
2023-10-15T16:40:14.606Z,8.80
2023-10-15T16:45:19.757Z,8.76
2023-10-15T16:57:45.718Z,8.58
2023-10-15T17:02:49.560Z,8.54
2023-10-15T17:07:53.663Z,8.53
2023-10-15T17:27:30.839Z,8.62
2023-10-15T17:33:04.918Z,8.67
2023-10-15T17:46:34.213Z,8.78
2023-10-15T17:51:42.627Z,8.77
2023-10-15T17:56:46.960Z,8.75
2023-10-15T18:01:51.189Z,8.87
2023-10-15T18:07:23.282Z,9.59
2023-10-15T18:12:28.417Z,9.79
2023-10-15T18:28:05.482Z,9.15
2023-10-15T18:33:12.969Z,9.12
2023-10-15T18:38:18.251Z,9.09
2023-10-15T18:44:44.818Z,9.04
2023-10-15T19:00:14.478Z,9.01
2023-10-15T19:05:20.309Z,9.04
2023-10-15T19:11:17.682Z,9.03
2023-10-15T19:16:21.970Z,9.04
2023-10-15T19:21:26.345Z,9.04
2023-10-15T19:33:33.999Z,9.01
2023-10-15T19:38:38.230Z,8.97
2023-10-15T19:44:08.166Z,8.94
2023-10-15T19:49:12.488Z,8.90
2023-10-15T19:54:17.991Z,8.85
2023-10-15T19:59:22.509Z,8.79
2023-10-15T20:04:52.126Z,9.72
2023-10-15T20:09:56.327Z,10.01
2023-10-15T20:16:16.551Z,9.37
2023-10-15T20:21:20.677Z,9.04
2023-10-15T20:26:34.378Z,10.83
2023-10-15T20:31:39.147Z,10.71
2023-10-15T20:55:59.178Z,9.90
2023-10-15T21:08:24.870Z,10.74
2023-10-15T21:32:45.073Z,10.06
2023-10-15T21:52:15.313Z,10.65
2023-10-15T22:04:25.993Z,10.62
2023-10-15T22:09:30.525Z,10.66
2023-10-15T22:14:50.364Z,10.61
2023-10-15T22:20:28.912Z,10.46
2023-10-15T22:25:35.828Z,10.44
2023-10-15T22:30:39.922Z,10.34
2023-10-15T22:35:47.509Z,10.17
2023-10-15T22:40:52.213Z,10.06
2023-10-15T22:45:56.396Z,10.02
2023-10-15T22:51:00.467Z,9.88
2023-10-15T22:56:04.979Z,9.86
2023-10-15T23:01:10.053Z,9.93
2023-10-15T23:06:16.290Z,9.98
2023-10-15T23:12:45.647Z,9.87
2023-10-15T23:17:49.734Z,9.84
2023-10-15T23:22:58.162Z,9.84
2023-10-15T23:28:14.900Z,9.82
2023-10-15T23:33:22.156Z,9.76
2023-10-15T23:39:21.006Z,9.79
2023-10-15T23:51:24.735Z,9.77
2023-10-15T23:56:33.407Z,9.78
